Time;durP1;ratioP1;P1;durP2;ratioP2;P2;SDS_P1;SDS_P2;PMS_P1;PMS_P2;Temp;Humidity;BMP_temperature;BMP_pressure;BME280_temperature;BME280_humidity;BME280_pressure;Samples;Min_cycle;Max_cycle;Signal;HPM_P1;HPM_P2
2021/12/18 00:00:05;;;;;;;14.37;5.87;;;-1.90;99.90;;;-2.39;99.96;99153.00;172340;28;1167;-77
2021/12/18 00:00:12;;;;;;;14.84;5.77;;;-1.90;99.90;;;-2.21;100.00;99189.13;172613;28;1040;-76
2021/12/18 00:00:21;;;;;;;15.00;5.90;;;-1.80;99.90;;;-2.21;100.00;99178.56;171653;28;1303;-76
2021/12/18 00:00:27;;;;;;;15.80;5.67;;;-1.90;99.90;;;-2.21;100.00;99186.47;171218;28;979;-77
2021/12/18 00:00:35;;;;;;;15.85;5.60;;;-1.80;99.90;;;-2.25;100.00;99171.72;172539;28;840;-76
2021/12/18 00:00:41;;;;;;;16.87;5.83;;;-1.90;99.90;;;-2.24;100.00;99176.06;171002;28;1035;-76
2021/12/18 00:00:47;;;;;;;16.42;5.60;;;-1.90;99.90;;;-2.32;99.90;99162.34;171104;28;1528;-76
2021/12/18 00:00:53;;;;;;;15.48;5.45;;;-1.90;99.90;;;-2.27;100.00;99178.84;173531;28;1355;-77
2021/12/18 00:00:59;;;;;;;14.05;5.45;;;-1.90;99.90;;;-2.26;100.00;99175.28;172427;28;1231;-78
2021/12/18 00:01:07;;;;;;;13.74;5.72;;;-1.90;99.90;;;-2.33;100.00;99161.50;170429;28;967;-76
2021/12/18 00:01:15;;;;;;;10.87;5.40;;;-1.90;99.90;;;-2.29;100.00;99168.38;171139;28;1026;-76
2021/12/18 00:01:22;;;;;;;10.52;5.45;;;-1.90;99.90;;;-2.27;100.00;99170.91;172113;28;1422;-76
2021/12/18 00:01:28;;;;;;;11.03;5.70;;;-1.90;99.90;;;-2.36;100.00;99156.34;171144;28;1570;-76
2021/12/18 00:01:34;;;;;;;11.55;5.50;;;-1.80;99.90;;;-2.20;100.00;99175.00;170366;29;1880;-76
2021/12/18 00:01:41;;;;;;;12.28;5.74;;;-1.80;99.90;;;-2.38;100.00;99150.28;171290;28;852;-76
2021/12/18 00:01:47;;;;;;;11.93;5.80;;;-1.80;99.90;;;-2.22;100.00;99175.06;171089;28;939;-76
2021/12/18 00:01:53;;;;;;;13.87;5.93;;;-1.80;99.90;;;-2.29;100.00;99160.47;170543;29;1037;-76
2021/12/18 00:01:59;;;;;;;13.17;6.07;;;-1.80;99.90;;;-2.23;100.00;99181.25;170544;28;1026;-76
2021/12/18 00:02:06;;;;;;;13.35;6.05;;;-1.80;99.90;;;-2.29;100.00;99168.38;171525;28;1331;-76
2021/12/18 00:02:13;;;;;;;14.32;6.28;;;-1.80;99.90;;;-2.32;100.00;99163.22;172100;28;1059;-76
2021/12/18 00:02:19;;;;;;;16.74;6.58;;;-1.80;99.90;;;-2.28;100.00;99166.59;171584;28;1460;-76
2021/12/18 00:02:24;;;;;;;16.75;6.47;;;-1.80;99.90;;;-2.27;100.00;99168.28;173127;28;1368;-76
2021/12/18 00:02:30;;;;;;;17.00;6.50;;;-1.80;99.90;;;-2.60;100.00;99107.31;171495;28;1076;-77
2021/12/18 00:02:36;;;;;;;15.93;6.30;;;-1.80;99.90;;;-2.36;100.00;99155.50;171781;28;1259;-77
2021/12/18 00:02:42;;;;;;;14.35;5.85;;;-1.80;99.90;;;-2.19;100.00;99179.38;171619;28;966;-77
2021/12/18 00:02:48;;;;;;;11.88;5.50;;;-1.80;99.90;;;-2.16;100.00;99189.78;172494;28;974;-77
2021/12/18 00:02:54;;;;;;;11.73;5.40;;;-1.80;99.90;;;-2.35;100.00;99149.31;172350;28;1191;-77
2021/12/18 00:03:00;;;;;;;12.50;5.43;;;-1.80;99.90;;;-2.13;100.00;99191.44;173219;28;966;-77
2021/12/18 00:03:07;;;;;;;13.55;5.60;;;-1.80;99.90;;;-2.13;100.00;99184.38;172411;28;1327;-77
2021/12/18 00:03:13;;;;;;;15.50;6.07;;;-1.80;99.90;;;-2.19;100.00;99172.31;172494;28;1290;-76
2021/12/18 00:03:19;;;;;;;16.30;6.40;;;-1.80;99.90;;;-2.15;100.00;99184.44;173205;28;955;-76
2021/12/18 00:03:26;;;;;;;15.75;6.28;;;-1.80;99.90;;;-2.17;100.00;99174.88;171924;28;840;-76
2021/12/18 00:03:33;;;;;;;14.90;6.05;;;-1.80;99.90;;;-2.13;100.00;99181.75;172574;28;966;-76
2021/12/18 00:03:39;;;;;;;15.17;5.90;;;-1.80;99.90;;;-2.15;100.00;99178.31;172986;28;1000;-76
2021/12/18 00:03:45;;;;;;;15.90;5.73;;;-1.80;99.90;;;-2.19;100.00;99174.97;173954;28;1030;-76
2021/12/18 00:03:52;;;;;;;17.57;5.93;;;-1.80;99.90;;;-2.22;100.00;99172.44;171799;28;1019;-76
2021/12/18 00:03:58;;;;;;;17.58;5.97;;;-1.80;99.90;;;-2.18;100.00;99175.81;171229;28;1101;-76
2021/12/18 00:04:04;;;;;;;17.02;5.80;;;-1.80;99.90;;;-2.28;100.00;99158.69;171672;28;1302;-77
2021/12/18 00:04:10;;;;;;;15.88;5.70;;;-1.80;99.90;;;-2.22;100.00;99171.56;173119;28;1439;-77
2021/12/18 00:04:16;;;;;;;13.35;5.43;;;-1.80;99.90;;;-2.37;100.00;99141.44;172109;28;1512;-77
2021/12/18 00:04:23;;;;;;;11.67;5.07;;;-1.80;99.90;;;-2.21;100.00;99176.78;171713;28;961;-77
2021/12/18 00:04:29;;;;;;;13.68;5.03;;;-1.80;99.90;;;-2.34;100.00;99151.03;172112;28;1014;-76
2021/12/18 00:04:35;;;;;;;14.43;5.47;;;-1.80;99.90;;;-2.14;100.00;99187.94;171237;28;912;-76
2021/12/18 00:04:41;;;;;;;14.38;5.70;;;-1.80;99.90;;;-2.22;100.00;99168.94;172074;28;1545;-77
2021/12/18 00:04:47;;;;;;;13.93;5.80;;;-1.80;99.90;;;-2.26;100.00;99164.72;171907;28;895;-77
2021/12/18 00:04:53;;;;;;;13.82;5.97;;;-1.80;99.90;;;-2.17;100.00;99188.06;171845;28;1270;-76
2021/12/18 00:04:58;;;;;;;13.68;6.15;;;-1.80;99.90;;;-2.18;100.00;99184.56;171709;28;1331;-77
2021/12/18 00:05:05;;;;;;;13.50;5.88;;;-1.80;99.90;;;-2.32;100.00;99159.72;171199;28;1252;-77
2021/12/18 00:05:11;;;;;;;13.86;5.90;;;-1.80;99.90;;;-2.31;100.00;99161.44;172958;28;1328;-76
2021/12/18 00:05:17;;;;;;;14.57;6.00;;;-1.80;99.90;;;-2.22;100.00;99177.72;172537;28;1405;-77
2021/12/18 00:05:23;;;;;;;14.65;5.78;;;-1.80;99.90;;;-2.53;100.00;99129.84;172254;28;1103;-76
2021/12/18 00:05:29;;;;;;;14.50;5.70;;;-1.80;99.90;;;-2.33;100.00;99155.38;171227;28;1321;-77
2021/12/18 00:05:36;;;;;;;14.23;5.83;;;-1.80;99.90;;;-2.27;100.00;99165.63;172956;28;1572;-76
2021/12/18 00:05:42;;;;;;;14.32;5.68;;;-1.80;99.90;;;-2.23;100.00;99181.25;173905;28;1021;-77
2021/12/18 00:05:48;;;;;;;15.02;5.75;;;-1.80;99.90;;;-2.18;100.00;99191.66;173076;28;1173;-76
2021/12/18 00:05:54;;;;;;;15.32;5.90;;;-1.80;99.90;;;-2.26;100.00;99178.78;172685;28;903;-77
2021/12/18 00:06:00;;;;;;;14.17;5.73;;;-1.80;99.90;;;-2.20;100.00;99186.44;171965;28;1721;-77
2021/12/18 00:06:06;;;;;;;14.04;5.52;;;-1.80;99.90;;;-2.28;100.00;99175.34;171993;28;856;-77
2021/12/18 00:06:13;;;;;;;13.18;5.40;;;-1.80;99.90;;;-2.24;100.00;99181.34;172404;28;1242;-77
2021/12/18 00:06:19;;;;;;;11.70;5.23;;;-1.80;99.90;;;-2.23;100.00;99196.25;172459;28;1194;-76
2021/12/18 00:06:29;;;;;;;12.24;5.30;;;-1.80;99.90;;;-2.29;100.00;99196.53;171808;28;1346;-76
2021/12/18 00:06:36;;;;;;;12.23;5.63;;;-1.80;99.90;;;-2.33;100.00;99190.50;171804;28;2664;-77
2021/12/18 00:06:41;;;;;;;13.20;5.97;;;-1.90;99.90;;;-2.33;100.00;99187.03;173447;28;1003;-76
2021/12/18 00:06:47;;;;;;;14.18;5.95;;;-1.90;99.90;;;-2.39;100.00;99185.50;172461;28;1026;-77
2021/12/18 00:06:55;;;;;;;14.20;6.03;;;-1.90;99.90;;;-2.40;100.00;99183.78;173189;28;816;-76
2021/12/18 00:07:01;;;;;;;14.40;6.12;;;-1.90;99.90;;;-2.44;100.00;99181.34;173092;28;1458;-76
2021/12/18 00:07:07;;;;;;;14.67;5.97;;;-1.90;99.90;;;-2.46;100.00;99176.13;171618;28;895;-77
2021/12/18 00:07:14;;;;;;;14.30;6.00;;;-2.00;99.90;;;-2.52;100.00;99167.63;171782;28;1324;-77
2021/12/18 00:07:20;;;;;;;14.36;6.02;;;-2.00;99.90;;;-2.42;99.87;99190.03;171695;28;1382;-77
2021/12/18 00:07:26;;;;;;;14.55;6.00;;;-2.00;99.90;;;-2.58;100.00;99164.31;173110;28;1048;-76
2021/12/18 00:07:34;;;;;;;14.02;5.93;;;-2.00;99.90;;;-2.50;99.82;99181.59;171194;28;1608;-77
2021/12/18 00:07:40;;;;;;;15.00;6.03;;;-2.00;99.90;;;-2.43;100.00;99188.31;171154;28;1409;-77
2021/12/18 00:07:46;;;;;;;13.95;5.75;;;-2.00;99.90;;;-2.46;99.76;99183.19;173147;28;1017;-77
2021/12/18 00:07:52;;;;;;;13.95;5.57;;;-2.00;99.90;;;-2.44;99.88;99190.13;173103;28;1349;-77
2021/12/18 00:07:58;;;;;;;13.93;5.72;;;-2.00;99.90;;;-2.55;99.99;99171.25;173190;28;1038;-76
2021/12/18 00:08:05;;;;;;;13.77;6.03;;;-2.00;99.90;;;-2.51;99.80;99183.38;171674;28;1455;-77
2021/12/18 00:08:11;;;;;;;13.00;6.17;;;-2.00;99.90;;;-2.44;99.85;99184.00;172542;28;1255;-76
2021/12/18 00:08:17;;;;;;;14.63;6.60;;;-2.00;99.90;;;-2.45;99.73;99187.53;173802;28;1066;-77
2021/12/18 00:08:24;;;;;;;14.23;6.67;;;-2.00;99.90;;;-2.44;100.00;99186.63;173263;28;946;-77
2021/12/18 00:08:30;;;;;;;12.97;6.17;;;-2.00;99.90;;;-2.53;99.75;99174.66;173910;28;1205;-77
2021/12/18 00:08:38;;;;;;;12.57;6.15;;;-2.00;99.90;;;-2.48;99.96;99179.75;173876;28;1566;-77
2021/12/18 00:08:45;;;;;;;10.57;5.70;;;-2.00;99.90;;;-2.47;99.61;99184.09;173077;28;1445;-77
2021/12/18 00:08:51;;;;;;;9.93;5.63;;;-2.00;99.90;;;-2.50;99.72;99177.19;173881;28;918;-77
2021/12/18 00:08:58;;;;;;;11.43;5.77;;;-2.00;99.90;;;-2.47;99.48;99184.09;172947;28;1342;-76
2021/12/18 00:09:07;;;;;;;11.88;5.56;;;-2.00;99.90;;;-2.63;99.84;99158.38;172587;28;974;-77
2021/12/18 00:09:13;;;;;;;12.01;5.64;;;-2.00;99.90;;;-2.45;99.94;99190.19;172498;28;1315;-77
2021/12/18 00:09:19;;;;;;;12.40;5.82;;;-2.00;99.90;;;-2.56;99.65;99166.91;171690;28;1292;-76
2021/12/18 00:09:26;;;;;;;11.45;5.70;;;-2.00;99.90;;;-2.57;99.84;99160.78;172448;28;1269;-76
2021/12/18 00:09:33;;;;;;;11.60;5.84;;;-2.00;99.90;;;-2.53;99.77;99174.66;173137;28;1413;-77
2021/12/18 00:09:40;;;;;;;12.20;5.83;;;-2.00;99.90;;;-2.47;99.77;99173.56;173041;28;1445;-77
2021/12/18 00:09:48;;;;;;;13.12;5.70;;;-2.00;99.90;;;-2.44;99.76;99182.22;172372;28;1307;-76
2021/12/18 00:09:54;;;;;;;13.68;5.82;;;-2.00;99.90;;;-2.84;100.00;99118.88;171807;28;1418;-77
2021/12/18 00:10:00;;;;;;;13.57;5.77;;;-2.00;99.90;;;-2.41;99.95;99189.13;171767;28;1354;-76
2021/12/18 00:10:07;;;;;;;13.43;5.72;;;-2.00;99.90;;;-2.55;100.00;99163.34;173180;28;1584;-76
2021/12/18 00:10:14;;;;;;;12.90;5.77;;;-2.00;99.90;;;-2.50;99.82;99171.06;173152;28;935;-77
2021/12/18 00:10:23;;;;;;;11.77;5.37;;;-2.00;99.90;;;-2.47;100.00;99166.50;171219;28;1311;-77
2021/12/18 00:10:29;;;;;;;11.93;5.29;;;-2.00;99.90;;;-2.42;99.92;99179.50;172187;28;1037;-77
2021/12/18 00:10:35;;;;;;;12.47;5.30;;;-2.00;99.90;;;-2.40;100.00;99182.94;171954;28;843;-76
2021/12/18 00:10:41;;;;;;;11.80;5.13;;;-2.00;99.90;;;-2.52;100.00;99157.94;171829;28;1072;-76
2021/12/18 00:10:48;;;;;;;11.03;5.20;;;-2.00;99.90;;;-2.54;100.00;99164.22;171905;28;963;-76
2021/12/18 00:10:55;;;;;;;11.23;5.18;;;-2.00;99.90;;;-2.52;100.00;99157.94;171572;28;1369;-77
2021/12/18 00:11:01;;;;;;;10.20;4.93;;;-2.00;99.90;;;-2.67;99.83;99137.50;172583;28;1402;-77
2021/12/18 00:11:09;;;;;;;9.35;4.78;;;-2.00;99.90;;;-2.46;99.89;99175.28;171214;28;1159;-76
2021/12/18 00:11:15;;;;;;;11.40;4.97;;;-2.00;99.90;;;-2.38;100.00;99181.94;171517;28;1461;-77
2021/12/18 00:11:22;;;;;;;12.40;5.40;;;-2.00;99.90;;;-2.35;99.90;99188.88;172909;28;1415;-77
2021/12/18 00:11:28;;;;;;;13.80;5.90;;;-2.00;99.90;;;-2.47;100.00;99165.66;171848;28;1387;-76
2021/12/18 00:11:34;;;;;;;14.17;6.00;;;-2.00;99.90;;;-2.44;100.00;99171.66;172406;28;1079;-77
2021/12/18 00:11:41;;;;;;;13.43;6.03;;;-2.00;99.90;;;-2.69;99.84;99128.78;173272;28;1055;-77
2021/12/18 00:11:48;;;;;;;12.32;6.10;;;-2.00;99.90;;;-2.70;99.82;99127.97;172087;28;1062;-77
2021/12/18 00:11:55;;;;;;;11.80;5.53;;;-2.00;99.90;;;-2.48;100.00;99170.06;173160;28;1445;-77
2021/12/18 00:12:04;;;;;;;11.27;5.50;;;-2.00;99.90;;;-2.48;100.00;99169.19;171820;28;891;-77
2021/12/18 00:12:10;;;;;;;12.20;5.70;;;-2.00;99.90;;;-2.52;100.00;99165.84;172411;28;1327;-77
2021/12/18 00:12:16;;;;;;;11.87;5.73;;;-2.00;99.90;;;-2.55;100.00;99162.50;171417;28;1010;-78
2021/12/18 00:12:22;;;;;;;11.85;5.85;;;-2.00;99.90;;;-2.74;99.79;99130.75;173069;28;1265;-77
2021/12/18 00:12:28;;;;;;;12.23;6.00;;;-2.00;99.90;;;-2.40;99.79;99189.06;172256;28;1188;-77
2021/12/18 00:12:34;;;;;;;12.20;6.05;;;-2.00;99.90;;;-2.52;99.92;99163.22;171178;28;1014;-76
2021/12/18 00:12:47;;;;;;;12.70;6.00;;;-2.00;99.90;;;-2.43;99.68;99180.41;171649;28;1352;-76
2021/12/18 00:12:53;;;;;;;13.19;6.06;;;-2.00;99.90;;;-2.49;99.65;99175.41;173721;28;1342;-76
2021/12/18 00:13:00;;;;;;;13.17;6.23;;;-2.00;99.90;;;-2.52;99.61;99171.13;173893;28;1314;-77
2021/12/18 00:13:06;;;;;;;13.03;6.18;;;-2.00;99.90;;;-2.70;99.56;99135.00;172185;28;1420;-77
2021/12/18 00:13:13;;;;;;;12.43;6.10;;;-2.00;99.90;;;-2.57;99.41;99159.91;172491;28;1339;-77
2021/12/18 00:13:20;;;;;;;13.27;6.17;;;-2.00;99.90;;;-2.41;99.42;99192.63;171785;28;2114;-77
2021/12/18 00:13:26;;;;;;;14.50;6.10;;;-2.00;99.90;;;-2.43;99.47;99189.19;171188;28;1470;-77
2021/12/18 00:13:32;;;;;;;14.38;5.95;;;-2.00;99.90;;;-2.40;99.58;99189.06;172270;28;1554;-77
2021/12/18 00:13:38;;;;;;;14.47;5.83;;;-2.10;99.90;;;-2.49;99.70;99178.06;171176;28;1372;-76
2021/12/18 00:13:44;;;;;;;13.93;5.60;;;-2.10;99.90;;;-2.41;99.71;99184.72;172418;28;1461;-76
2021/12/18 00:13:50;;;;;;;12.63;5.37;;;-2.00;99.90;;;-2.46;99.55;99186.69;172276;28;1040;-77
2021/12/18 00:13:56;;;;;;;11.10;5.30;;;-2.00;99.90;;;-2.43;99.21;99193.59;173170;28;1602;-77
2021/12/18 00:14:02;;;;;;;11.76;5.38;;;-2.00;99.90;;;-2.49;99.37;99181.56;173897;28;1026;-77
2021/12/18 00:14:08;;;;;;;12.25;5.78;;;-2.10;99.90;;;-2.83;99.39;99123.25;173137;28;1493;-76
2021/12/18 00:14:15;;;;;;;12.43;5.90;;;-2.10;99.90;;;-2.47;99.36;99187.59;172294;28;1548;-76
2021/12/18 00:14:22;;;;;;;13.10;6.13;;;-2.00;99.90;;;-2.85;99.46;99127.75;173306;28;867;-77
2021/12/18 00:14:28;;;;;;;13.00;6.07;;;-2.10;99.90;;;-2.50;99.32;99185.09;172955;28;1306;-76
2021/12/18 00:14:34;;;;;;;12.63;6.23;;;-2.10;99.90;;;-2.54;99.60;99182.66;171171;28;1366;-77
2021/12/18 00:14:40;;;;;;;12.73;6.20;;;-2.10;99.90;;;-2.47;99.54;99192.00;173046;28;1452;-77
2021/12/18 00:14:46;;;;;;;13.07;6.17;;;-2.10;99.90;;;-2.51;99.25;99179.88;173694;28;1188;-76
2021/12/18 00:14:52;;;;;;;12.85;6.10;;;-2.10;99.90;;;-2.52;99.34;99189.56;171683;28;1252;-76
2021/12/18 00:14:58;;;;;;;13.07;6.00;;;-2.10;99.90;;;-2.57;99.51;99183.63;172545;28;887;-76
2021/12/18 00:15:05;;;;;;;12.88;5.82;;;-2.10;99.90;;;-2.54;99.35;99183.53;173606;28;1383;-76
2021/12/18 00:15:11;;;;;;;12.76;5.74;;;-2.10;99.90;;;-2.56;99.48;99180.09;173805;28;1331;-76
2021/12/18 00:15:19;;;;;;;13.70;5.88;;;-2.10;99.90;;;-2.51;99.41;99188.66;173140;28;1191;-77
2021/12/18 00:15:25;;;;;;;14.30;5.87;;;-2.10;99.90;;;-2.46;99.60;99196.38;172559;28;1040;-77
2021/12/18 00:15:31;;;;;;;15.75;5.90;;;-2.10;99.90;;;-2.61;99.38;99171.50;173908;28;1225;-77
2021/12/18 00:15:37;;;;;;;16.75;5.97;;;-2.10;99.90;;;-2.66;99.54;99160.31;173062;28;1902;-77
2021/12/18 00:15:44;;;;;;;16.00;5.70;;;-2.10;99.90;;;-2.49;99.57;99194.75;172616;28;1322;-77
2021/12/18 00:15:51;;;;;;;16.02;5.78;;;-2.10;99.90;;;-2.53;99.35;99184.34;172830;28;1062;-77
2021/12/18 00:15:57;;;;;;;16.03;5.67;;;-2.10;99.90;;;-2.57;99.62;99181.88;172505;28;1370;-76
2021/12/18 00:16:05;;;;;;;14.44;5.62;;;-2.10;99.90;;;-2.54;99.46;99180.88;173079;28;1503;-76
2021/12/18 00:16:11;;;;;;;13.70;5.68;;;-2.10;99.90;;;-2.49;99.39;99192.09;172305;28;1331;-76
2021/12/18 00:16:17;;;;;;;13.60;5.53;;;-2.10;99.90;;;-2.54;99.32;99191.44;172939;28;1259;-76
2021/12/18 00:16:23;;;;;;;13.80;5.63;;;-2.10;99.90;;;-2.55;99.49;99183.59;173213;28;2241;-77
2021/12/18 00:16:29;;;;;;;14.38;5.93;;;-2.10;99.90;;;-2.47;99.62;99202.56;171965;28;1357;-75
2021/12/18 00:16:35;;;;;;;14.52;6.03;;;-2.10;99.90;;;-2.52;99.10;99189.56;171777;28;1349;-76
2021/12/18 00:16:41;;;;;;;15.40;6.28;;;-2.10;99.90;;;-2.51;99.14;99190.44;171716;28;887;-74
2021/12/18 00:16:47;;;;;;;15.02;6.32;;;-2.10;99.90;;;-2.64;99.22;99172.50;171142;28;1301;-75
2021/12/18 00:16:53;;;;;;;14.63;6.70;;;-2.10;99.90;;;-2.52;99.36;99199.25;171293;28;1015;-76
2021/12/18 00:17:02;;;;;;;15.02;6.55;;;-2.10;99.90;;;-2.61;99.28;99180.28;172512;28;978;-75
2021/12/18 00:17:07;;;;;;;14.33;6.43;;;-2.10;99.90;;;-2.54;99.30;99194.06;171077;28;1431;-76
2021/12/18 00:17:13;;;;;;;12.98;6.10;;;-2.10;99.90;;;-2.69;99.22;99166.53;173294;28;871;-75
2021/12/18 00:17:19;;;;;;;12.63;6.05;;;-2.10;99.90;;;-2.71;99.50;99171.03;172963;28;1648;-75
2021/12/18 00:17:25;;;;;;;12.27;5.75;;;-2.10;99.90;;;-2.64;99.09;99175.13;173331;28;895;-76
2021/12/18 00:17:31;;;;;;;11.53;5.80;;;-2.10;99.90;;;-2.55;99.21;99183.59;172868;28;1412;-76
2021/12/18 00:17:37;;;;;;;11.65;5.57;;;-2.10;99.90;;;-2.88;99.09;99133.97;172413;28;1212;-75
2021/12/18 00:17:44;;;;;;;12.73;5.90;;;-2.10;99.90;;;-2.61;99.13;99182.91;172492;28;1270;-75
2021/12/18 00:17:50;;;;;;;13.80;5.95;;;-2.10;99.90;;;-2.53;99.27;99195.75;171056;28;1454;-75
2021/12/18 00:17:56;;;;;;;13.63;5.97;;;-2.10;99.90;;;-2.64;99.23;99184.81;172592;28;875;-75
2021/12/18 00:18:02;;;;;;;13.97;5.80;;;-2.10;99.90;;;-2.52;99.28;99204.53;172236;28;1139;-75
2021/12/18 00:18:08;;;;;;;13.90;5.80;;;-2.10;99.90;;;-2.68;99.37;99184.09;171086;28;1328;-76
2021/12/18 00:18:14;;;;;;;14.70;6.03;;;-2.10;99.90;;;-2.51;99.32;99206.25;170636;28;998;-76
2021/12/18 00:18:20;;;;;;;14.63;6.07;;;-2.10;99.90;;;-2.57;99.23;99200.31;171915;28;946;-77
2021/12/18 00:18:26;;;;;;;14.73;6.07;;;-2.10;99.90;;;-2.68;99.39;99175.31;170356;29;1474;-76
2021/12/18 00:18:35;;;;;;;15.25;5.97;;;-2.10;99.90;;;-2.68;99.33;99177.94;169870;29;805;-76
2021/12/18 00:18:41;;;;;;;16.12;6.02;;;-2.10;99.90;;;-2.72;99.22;99171.97;172461;28;959;-76
2021/12/18 00:18:50;;;;;;;14.37;5.63;;;-2.10;99.90;;;-2.55;99.11;99194.13;173279;28;923;-76
2021/12/18 00:18:58;;;;;;;13.00;5.37;;;-2.10;99.90;;;-2.55;99.02;99199.41;172481;28;1290;-76
2021/12/18 00:19:03;;;;;;;11.97;5.40;;;-2.10;99.90;;;-2.64;98.82;99187.44;171713;28;1404;-76
2021/12/18 00:19:09;;;;;;;12.35;5.32;;;-2.10;99.90;;;-2.72;98.97;99171.09;173509;28;1374;-76
2021/12/18 00:19:16;;;;;;;12.13;5.27;;;-2.20;99.90;;;-2.69;98.90;99174.47;172966;28;1577;-76
2021/12/18 00:19:25;;;;;;;13.50;5.20;;;-2.10;99.90;;;-2.70;98.88;99170.13;171215;28;982;-76
2021/12/18 00:19:31;;;;;;;13.14;5.37;;;-2.20;99.90;;;-2.76;99.04;99165.09;171867;28;1217;-76
2021/12/18 00:19:39;;;;;;;12.52;5.55;;;-2.10;99.90;;;-2.53;99.18;99200.19;173077;28;1442;-76
2021/12/18 00:19:45;;;;;;;13.10;5.83;;;-2.20;99.90;;;-2.63;99.17;99184.75;172437;28;1288;-75
2021/12/18 00:19:51;;;;;;;12.40;6.15;;;-2.20;99.90;;;-2.60;99.04;99191.69;171163;28;1216;-75
2021/12/18 00:19:57;;;;;;;14.68;6.45;;;-2.20;99.90;;;-2.58;98.92;99195.97;172570;28;1046;-76
2021/12/18 00:20:03;;;;;;;14.87;6.37;;;-2.20;99.90;;;-2.73;98.60;99186.06;172278;28;1309;-76
2021/12/18 00:20:11;;;;;;;14.43;5.93;;;-2.20;99.90;;;-2.68;98.53;99193.78;172477;28;1243;-76
2021/12/18 00:20:17;;;;;;;14.70;5.70;;;-2.20;99.90;;;-2.72;98.31;99193.03;172843;28;1366;-76
2021/12/18 00:20:26;;;;;;;14.73;5.63;;;-2.20;99.90;;;-2.69;98.62;99200.81;173194;28;1135;-76
2021/12/18 00:20:32;;;;;;;13.30;5.42;;;-2.20;99.90;;;-2.74;98.73;99189.59;171678;28;1439;-75
2021/12/18 00:20:38;;;;;;;13.07;5.43;;;-2.20;99.90;;;-2.73;98.77;99186.06;172649;28;1314;-76
2021/12/18 00:20:45;;;;;;;13.00;5.53;;;-2.20;99.90;;;-2.72;98.60;99190.41;172634;28;965;-75
2021/12/18 00:20:51;;;;;;;12.08;5.34;;;-2.20;99.90;;;-2.71;98.95;99189.50;171669;28;1035;-76
2021/12/18 00:20:59;;;;;;;11.00;5.40;;;-2.20;99.90;;;-2.79;98.75;99181.03;171960;28;1577;-76
2021/12/18 00:21:07;;;;;;;10.80;5.43;;;-2.20;99.90;;;-2.65;99.16;99197.16;172933;28;1677;-75
2021/12/18 00:21:17;;;;;;;11.73;5.57;;;-2.20;99.90;;;-2.66;99.24;99187.53;170964;28;1355;-75
2021/12/18 00:21:24;;;;;;;12.06;5.69;;;-2.20;99.90;;;-2.62;99.28;99199.66;171734;28;1515;-75
2021/12/18 00:21:30;;;;;;;12.52;5.88;;;-2.20;99.90;;;-2.58;99.16;99205.66;171630;28;1473;-75
2021/12/18 00:21:37;;;;;;;12.68;5.82;;;-2.20;99.90;;;-2.65;99.25;99185.75;172483;28;1600;-76
2021/12/18 00:21:43;;;;;;;11.62;5.80;;;-2.20;99.90;;;-2.67;99.44;99185.81;172545;28;891;-76
2021/12/18 00:21:49;;;;;;;11.43;5.63;;;-2.20;99.90;;;-2.58;99.25;99206.50;173126;28;1267;-76
2021/12/18 00:21:55;;;;;;;10.95;5.28;;;-2.20;99.90;;;-2.59;99.32;99199.50;173153;28;1346;-75
2021/12/18 00:22:01;;;;;;;10.77;5.20;;;-2.20;99.90;;;-2.75;99.33;99176.50;171573;28;1198;-76
2021/12/18 00:22:07;;;;;;;11.47;5.20;;;-2.20;99.90;;;-2.55;99.48;99204.69;172464;28;1290;-76
2021/12/18 00:22:13;;;;;;;11.97;5.43;;;-2.20;99.90;;;-2.68;99.37;99189.34;171159;28;1254;-75
2021/12/18 00:22:19;;;;;;;12.23;5.60;;;-2.10;99.90;;;-2.58;99.67;99206.50;172475;28;1398;-75
2021/12/18 00:22:25;;;;;;;12.52;5.72;;;-2.20;99.90;;;-2.70;99.39;99195.63;173114;28;1138;-76
2021/12/18 00:22:31;;;;;;;12.90;5.68;;;-2.20;99.90;;;-2.54;99.17;99216.94;173205;28;1265;-75
2021/12/18 00:22:37;;;;;;;13.65;6.15;;;-2.20;99.90;;;-2.59;99.65;99207.41;172928;28;1574;-75
2021/12/18 00:22:45;;;;;;;13.90;5.95;;;-2.20;99.90;;;-2.57;99.48;99217.91;172993;28;1307;-75
2021/12/18 00:22:51;;;;;;;13.07;5.77;;;-2.20;99.90;;;-2.70;99.27;99193.84;173123;28;1192;-76
2021/12/18 00:22:58;;;;;;;14.10;6.18;;;-2.20;99.90;;;-2.65;99.36;99205.06;171139;28;1412;-75
2021/12/18 00:23:05;;;;;;;14.38;6.03;;;-2.20;99.90;;;-2.63;99.46;99203.19;171833;28;1367;-75
2021/12/18 00:23:12;;;;;;;15.23;5.75;;;-2.20;99.90;;;-2.67;99.45;99198.13;173268;28;942;-75
2021/12/18 00:23:18;;;;;;;16.13;5.90;;;-2.10;99.90;;;-2.68;99.13;99205.16;171924;28;1073;-75
2021/12/18 00:23:26;;;;;;;15.77;5.57;;;-2.20;99.90;;;-2.62;99.17;99215.47;171860;28;1492;-76
2021/12/18 00:23:32;;;;;;;14.72;5.60;;;-2.20;99.90;;;-2.64;99.23;99208.53;170109;29;1153;-75
2021/12/18 00:23:38;;;;;;;13.45;5.63;;;-2.10;99.90;;;-2.60;99.50;99225.97;171939;28;1006;-76
2021/12/18 00:23:44;;;;;;;11.77;5.47;;;-2.20;99.90;;;-2.60;99.25;99216.28;171048;28;1762;-75
2021/12/18 00:23:50;;;;;;;11.30;5.60;;;-2.20;99.90;;;-2.66;99.17;99207.75;171383;28;868;-75
2021/12/18 00:23:56;;;;;;;11.78;5.60;;;-2.20;99.90;;;-2.72;99.37;99192.19;172538;28;915;-76
2021/12/18 00:24:05;;;;;;;11.75;5.47;;;-2.20;99.90;;;-2.59;99.10;99209.22;171031;28;1064;-76
2021/12/18 00:24:11;;;;;;;12.74;5.53;;;-2.20;99.90;;;-2.71;99.53;99199.19;171115;28;1138;-76
2021/12/18 00:24:17;;;;;;;13.23;5.53;;;-2.20;99.90;;;-2.62;99.23;99210.19;171188;28;1137;-76
2021/12/18 00:24:24;;;;;;;13.40;5.60;;;-2.20;99.90;;;-2.74;99.33;99199.28;171886;28;899;-76
2021/12/18 00:24:30;;;;;;;14.06;5.74;;;-2.20;99.90;;;-2.62;99.13;99215.47;171678;28;1438;-76
2021/12/18 00:24:36;;;;;;;13.20;5.70;;;-2.20;99.90;;;-2.78;99.39;99181.88;173072;28;1526;-76
2021/12/18 00:24:42;;;;;;;13.30;5.63;;;-2.20;99.90;;;-2.71;99.31;99207.94;173193;28;956;-76
2021/12/18 00:24:48;;;;;;;12.40;5.18;;;-2.20;99.90;;;-2.74;99.09;99200.16;170734;28;906;-75
2021/12/18 00:24:54;;;;;;;11.82;4.97;;;-2.20;99.90;;;-2.76;99.29;99194.09;171723;28;1366;-75
2021/12/18 00:25:00;;;;;;;10.77;4.78;;;-2.20;99.90;;;-2.66;99.09;99211.25;172612;28;923;-75
2021/12/18 00:25:07;;;;;;;10.52;4.68;;;-2.20;99.90;;;-2.72;99.38;99200.09;172899;28;1393;-76
2021/12/18 00:25:13;;;;;;;12.14;5.30;;;-2.20;99.90;;;-2.65;99.59;99210.34;172401;28;1326;-75
2021/12/18 00:25:20;;;;;;;11.62;5.48;;;-2.20;99.90;;;-2.53;99.35;99223.91;172273;28;1323;-76
2021/12/18 00:25:26;;;;;;;11.80;5.57;;;-2.20;99.90;;;-2.61;99.33;99203.16;172630;28;828;-76
2021/12/18 00:25:32;;;;;;;11.85;5.57;;;-2.20;99.90;;;-2.64;99.51;99200.63;172516;28;883;-75
2021/12/18 00:25:39;;;;;;;10.88;5.30;;;-2.20;99.90;;;-2.65;99.36;99201.56;171875;28;919;-76
2021/12/18 00:25:45;;;;;;;10.85;5.22;;;-2.10;99.90;;;-2.77;99.52;99176.56;172061;28;1359;-76
2021/12/18 00:25:51;;;;;;;11.75;5.30;;;-2.10;99.90;;;-2.62;99.55;99207.56;172446;28;1430;-76
2021/12/18 00:25:57;;;;;;;11.93;5.27;;;-2.10;99.90;;;-2.58;99.62;99210.91;173458;28;1323;-76
2021/12/18 00:26:03;;;;;;;11.40;5.00;;;-2.10;99.90;;;-2.58;99.66;99206.50;171040;28;1400;-76
2021/12/18 00:26:09;;;;;;;11.63;4.97;;;-2.10;99.90;;;-2.53;99.62;99218.63;171863;28;951;-75
2021/12/18 00:26:16;;;;;;;11.04;4.88;;;-2.10;99.90;;;-2.53;100.00;99218.63;171091;28;1422;-76
2021/12/18 00:26:22;;;;;;;9.57;4.63;;;-2.10;99.90;;;-2.54;99.83;99207.25;172376;28;951;-76
2021/12/18 00:26:28;;;;;;;9.57;4.53;;;-2.10;99.90;;;-2.62;99.70;99199.66;172699;28;1338;-76
2021/12/18 00:26:35;;;;;;;10.45;4.85;;;-2.10;99.90;;;-2.54;99.86;99220.44;171934;28;1010;-75
2021/12/18 00:26:41;;;;;;;10.07;4.77;;;-2.10;99.90;;;-2.57;99.70;99208.22;171129;28;1048;-76
2021/12/18 00:26:47;;;;;;;10.38;4.80;;;-2.10;99.90;;;-2.52;99.94;99220.34;172614;28;915;-75
2021/12/18 00:26:53;;;;;;;12.17;4.90;;;-2.10;99.90;;;-2.54;99.87;99206.41;171190;28;1295;-75
2021/12/18 00:27:00;;;;;;;11.10;4.68;;;-2.10;99.90;;;-2.62;100.00;99201.44;171255;28;916;-76
2021/12/18 00:27:06;;;;;;;9.85;4.47;;;-2.10;99.90;;;-2.63;99.54;99197.94;169615;29;1059;-76
2021/12/18 00:27:12;;;;;;;9.03;4.30;;;-2.10;99.90;;;-2.54;99.63;99216.94;171989;28;951;-76
2021/12/18 00:27:18;;;;;;;8.70;4.10;;;-2.10;99.90;;;-2.57;99.86;99218.78;171672;28;1253;-75
2021/12/18 00:27:24;;;;;;;7.70;4.00;;;-2.10;99.90;;;-2.70;100.00;99190.34;171304;28;954;-75
2021/12/18 00:27:30;;;;;;;8.13;3.92;;;-2.10;99.90;;;-2.53;100.00;99221.25;171625;28;1180;-75
2021/12/18 00:27:36;;;;;;;7.95;3.92;;;-2.10;99.90;;;-2.53;100.00;99221.25;171906;28;883;-75